createdAt,value
2022-10-01T00:02:06.005Z,89.14
2022-10-01T00:04:32.396Z,89.18
2022-10-01T00:07:03.162Z,89.87
2022-10-01T00:09:29.494Z,89.86
2022-10-01T00:11:56.555Z,89.90
2022-10-01T00:14:23.007Z,89.85
2022-10-01T00:16:49.466Z,90.04
2022-10-01T00:19:15.933Z,90.23
2022-10-01T00:21:42.510Z,90.41
2022-10-01T00:24:12.240Z,90.66
2022-10-01T00:26:38.913Z,90.45
2022-10-01T00:29:09.877Z,90.72
2022-10-01T00:31:36.712Z,91.04
2022-10-01T00:34:03.817Z,91.05
2022-10-01T00:36:31.717Z,90.87
2022-10-01T00:39:01.995Z,91.51
2022-10-01T00:41:31.063Z,91.64
2022-10-01T00:44:01.237Z,91.98
2022-10-01T00:46:40.839Z,91.93
2022-10-01T00:49:10.923Z,92.18
2022-10-01T00:51:45.520Z,92.10
2022-10-01T00:54:17.057Z,92.45
2022-10-01T00:56:44.705Z,92.05
2022-10-01T00:59:12.076Z,92.35
2022-10-01T01:01:39.277Z,92.56
2022-10-01T01:04:16.238Z,92.52
2022-10-01T01:06:53.707Z,92.80
2022-10-01T01:09:21.155Z,92.49
2022-10-01T01:11:58.828Z,92.63
2022-10-01T01:14:36.533Z,92.76
2022-10-01T01:17:10.880Z,92.86
2022-10-01T01:20:05.614Z,92.65
2022-10-01T01:22:37.004Z,92.54
2022-10-01T01:25:14.059Z,92.66
2022-10-01T01:28:14.722Z,92.93
2022-10-01T01:30:41.505Z,93.18
2022-10-01T01:33:15.773Z,93.18
2022-10-01T01:35:49.254Z,93.18
2022-10-01T01:38:21.793Z,93.20
2022-10-01T01:40:51.467Z,93.67
2022-10-01T01:43:23.230Z,93.58
2022-10-01T01:45:52.478Z,94.00
2022-10-01T01:48:18.853Z,93.46
2022-10-01T01:50:56.940Z,93.83
2022-10-01T01:53:24.037Z,93.52
2022-10-01T01:55:50.706Z,93.31
2022-10-01T01:58:18.683Z,93.86
2022-10-01T02:00:47.705Z,94.00
2022-10-01T02:03:14.006Z,94.13
2022-10-01T02:06:08.841Z,94.30
2022-10-01T02:09:03.765Z,94.19
2022-10-01T02:11:38.032Z,94.11
2022-10-01T02:14:58.471Z,94.63
2022-10-01T02:17:46.431Z,94.79
2022-10-01T02:20:28.044Z,94.29
2022-10-01T02:23:03.520Z,94.67
2022-10-01T02:25:35.856Z,94.46
2022-10-01T02:28:08.476Z,94.75
2022-10-01T02:30:35.953Z,94.75
2022-10-01T02:33:05.324Z,94.91
2022-10-01T02:35:34.989Z,95.14
2022-10-01T02:38:05.779Z,95.20
2022-10-01T02:40:36.426Z,95.29
2022-10-01T02:43:11.124Z,95.40
2022-10-01T02:45:40.786Z,95.35
2022-10-01T02:48:11.211Z,95.57
2022-10-01T02:50:48.113Z,95.63
2022-10-01T02:53:25.901Z,95.35
2022-10-01T02:55:53.926Z,95.60
2022-10-01T02:58:21.548Z,95.41
2022-10-01T03:00:47.908Z,95.47
2022-10-01T03:03:14.232Z,95.77
2022-10-01T03:05:40.743Z,95.56
2022-10-01T03:08:07.156Z,95.66
2022-10-01T03:10:34.721Z,95.80
2022-10-01T03:13:01.786Z,96.04
2022-10-01T03:15:28.355Z,95.79
2022-10-01T03:17:55.406Z,96.28
2022-10-01T03:20:22.215Z,96.02
2022-10-01T03:22:48.685Z,95.73
2022-10-01T03:25:15.879Z,95.98
2022-10-01T03:27:42.967Z,96.11
2022-10-01T03:30:10.272Z,95.91
2022-10-01T03:32:36.649Z,95.97
2022-10-01T03:35:03.075Z,95.84
2022-10-01T03:37:29.377Z,96.07
2022-10-01T03:39:55.727Z,96.07
2022-10-01T03:42:22.062Z,96.25
2022-10-01T03:44:48.464Z,96.46
2022-10-01T03:47:14.783Z,95.81
2022-10-01T03:49:41.104Z,96.04
2022-10-01T03:52:07.452Z,96.30
2022-10-01T03:54:33.837Z,96.33
2022-10-01T03:57:00.234Z,96.35
2022-10-01T03:59:29.707Z,96.34
2022-10-01T04:01:56.122Z,96.14
2022-10-01T04:04:22.533Z,96.03
2022-10-01T04:06:48.869Z,96.05
2022-10-01T04:09:15.215Z,96.13
2022-10-01T04:11:41.550Z,95.86
2022-10-01T04:14:08.618Z,96.16
2022-10-01T04:16:36.062Z,96.35
2022-10-01T04:19:04.055Z,95.99
2022-10-01T04:21:30.391Z,95.94
2022-10-01T04:23:56.807Z,96.05
2022-10-01T04:26:23.138Z,95.97
2022-10-01T04:28:49.508Z,96.18
2022-10-01T04:31:25.250Z,96.03
2022-10-01T04:33:56.717Z,96.19
2022-10-01T04:36:24.361Z,96.00
2022-10-01T04:38:52.307Z,95.98
2022-10-01T04:41:19.210Z,96.08
2022-10-01T04:43:45.681Z,96.11
2022-10-01T04:46:12.256Z,96.14
2022-10-01T04:48:38.565Z,96.19
2022-10-01T04:51:04.960Z,95.92
2022-10-01T04:53:31.352Z,96.12
2022-10-01T04:55:57.746Z,96.06
2022-10-01T04:58:24.247Z,95.93
2022-10-01T05:00:50.798Z,96.18
2022-10-01T05:03:17.609Z,96.12
2022-10-01T05:05:44.404Z,95.94
2022-10-01T05:08:10.739Z,96.25
2022-10-01T05:10:37.169Z,96.33
2022-10-01T05:13:03.539Z,96.14
2022-10-01T05:15:30.460Z,96.28
2022-10-01T05:17:57.040Z,96.20
2022-10-01T05:20:25.946Z,96.08
2022-10-01T05:22:53.247Z,95.86
2022-10-01T05:25:20.618Z,95.96
2022-10-01T05:27:47.556Z,96.18
2022-10-01T05:30:18.554Z,96.06
2022-10-01T05:32:57.705Z,96.37
2022-10-01T05:35:24.532Z,96.32
2022-10-01T05:37:55.122Z,96.39
2022-10-01T05:40:21.662Z,96.10
2022-10-01T05:42:48.071Z,96.41
2022-10-01T05:45:14.544Z,96.37
2022-10-01T05:47:42.288Z,96.16
2022-10-01T05:50:09.331Z,96.22
2022-10-01T05:52:35.676Z,96.25
2022-10-01T05:55:01.982Z,96.07
2022-10-01T05:57:28.302Z,95.90
2022-10-01T05:59:54.595Z,96.22
2022-10-01T06:02:21.087Z,96.41
2022-10-01T06:04:47.541Z,96.53
2022-10-01T06:07:13.911Z,96.24
2022-10-01T06:09:40.233Z,96.16
2022-10-01T06:12:09.712Z,96.31
2022-10-01T06:14:36.021Z,96.37
2022-10-01T06:17:02.324Z,96.64
2022-10-01T06:19:28.619Z,96.64
2022-10-01T06:21:54.915Z,96.35
2022-10-01T06:24:21.344Z,96.44
2022-10-01T06:26:49.015Z,96.33
2022-10-01T06:29:15.410Z,96.41
2022-10-01T06:31:41.745Z,96.72
2022-10-01T06:34:08.096Z,96.53
2022-10-01T06:36:34.402Z,96.81
2022-10-01T06:39:00.746Z,96.66
2022-10-01T06:41:27.116Z,96.83
2022-10-01T06:43:53.499Z,96.83
2022-10-01T06:46:19.859Z,96.74
2022-10-01T06:48:46.211Z,96.82
2022-10-01T06:51:12.520Z,96.73
2022-10-01T06:53:38.855Z,96.89
2022-10-01T06:56:07.233Z,96.87
2022-10-01T06:58:34.528Z,96.92
2022-10-01T07:01:03.013Z,96.65
2022-10-01T07:03:31.015Z,97.01
2022-10-01T07:06:05.084Z,97.03
2022-10-01T07:08:33.034Z,96.88
2022-10-01T07:11:02.368Z,96.97
2022-10-01T07:13:28.683Z,96.87
2022-10-01T07:15:55.028Z,96.96
2022-10-01T07:18:21.363Z,96.88
2022-10-01T07:20:47.775Z,97.07
2022-10-01T07:23:15.364Z,96.99
2022-10-01T07:25:42.975Z,96.79
2022-10-01T07:28:17.797Z,96.90
2022-10-01T07:30:59.238Z,96.83
2022-10-01T07:33:25.575Z,96.88
2022-10-01T07:35:51.967Z,96.89
2022-10-01T07:38:18.297Z,96.91
2022-10-01T07:40:44.686Z,96.78
2022-10-01T07:43:11.080Z,96.81
2022-10-01T07:45:37.445Z,96.77
2022-10-01T07:48:04.262Z,96.71
2022-10-01T07:50:30.727Z,96.60
2022-10-01T07:52:58.365Z,96.59
2022-10-01T07:55:26.885Z,96.49
2022-10-01T07:57:55.319Z,96.41
2022-10-01T08:00:23.673Z,96.28
2022-10-01T08:02:51.624Z,96.13
2022-10-01T08:05:20.340Z,95.97
2022-10-01T08:07:48.116Z,95.60
2022-10-01T08:10:17.503Z,95.34
2022-10-01T08:12:44.900Z,95.08
2022-10-01T08:15:13.918Z,95.26
2022-10-01T08:17:40.395Z,95.12
2022-10-01T08:20:08.378Z,95.14
2022-10-01T08:22:39.808Z,95.19
2022-10-01T08:25:08.461Z,95.06
2022-10-01T08:27:35.097Z,94.98
2022-10-01T08:30:01.410Z,94.99
2022-10-01T08:32:28.152Z,94.89
2022-10-01T08:34:57.591Z,94.99
2022-10-01T08:37:27.024Z,95.13
2022-10-01T08:39:54.613Z,95.00
2022-10-01T08:42:52.095Z,95.02
2022-10-01T08:45:34.726Z,94.87
2022-10-01T08:48:13.271Z,94.66
2022-10-01T08:50:57.485Z,94.54
2022-10-01T08:53:47.353Z,94.48
2022-10-01T08:56:35.439Z,94.17
2022-10-01T08:59:17.024Z,93.58
2022-10-01T09:01:43.406Z,93.35
2022-10-01T09:04:10.865Z,93.38
2022-10-01T09:06:38.436Z,92.85
2022-10-01T09:09:31.042Z,92.07
2022-10-01T09:12:28.064Z,91.83
2022-10-01T09:15:17.964Z,91.18
2022-10-01T09:17:55.632Z,90.34
2022-10-01T09:20:39.008Z,89.68
2022-10-01T09:23:26.053Z,89.39
2022-10-01T09:25:52.451Z,88.11
2022-10-01T09:28:32.202Z,88.43
2022-10-01T09:31:25.722Z,87.27
2022-10-01T09:34:01.462Z,87.74
2022-10-01T09:36:45.544Z,87.15
2022-10-01T09:39:20.005Z,87.25
2022-10-01T09:41:46.725Z,87.44
2022-10-01T09:44:21.978Z,87.11
2022-10-01T09:46:48.385Z,85.07
2022-10-01T09:49:31.708Z,82.69
2022-10-01T09:52:03.908Z,81.56
2022-10-01T09:54:55.013Z,79.17
2022-10-01T09:57:44.574Z,79.14
2022-10-01T10:00:18.194Z,78.31
2022-10-01T10:02:49.185Z,78.96
2022-10-01T10:05:23.481Z,78.68
2022-10-01T10:07:53.422Z,79.42
2022-10-01T10:10:26.069Z,81.48
2022-10-01T10:12:59.132Z,82.23
2022-10-01T10:15:26.296Z,80.87
2022-10-01T10:17:55.554Z,81.55
2022-10-01T10:20:40.263Z,81.17
2022-10-01T10:23:26.711Z,79.99
2022-10-01T10:26:04.725Z,79.70
2022-10-01T10:28:44.609Z,79.79
2022-10-01T10:31:18.855Z,78.36
2022-10-01T10:34:13.470Z,80.11
2022-10-01T10:36:41.729Z,79.48
2022-10-01T10:39:20.164Z,79.52
2022-10-01T10:41:48.540Z,76.88
2022-10-01T10:44:19.478Z,75.04
2022-10-01T10:46:46.425Z,75.23
2022-10-01T10:49:29.510Z,72.72
2022-10-01T10:51:58.634Z,72.58
2022-10-01T10:54:24.900Z,72.25
2022-10-01T10:57:02.099Z,71.50
2022-10-01T10:59:31.848Z,69.85
2022-10-01T11:02:04.640Z,69.54
2022-10-01T11:04:39.739Z,70.69
2022-10-01T11:07:06.255Z,69.41
2022-10-01T11:09:37.394Z,69.15
2022-10-01T11:12:12.795Z,68.10
2022-10-01T11:15:23.368Z,66.79
2022-10-01T11:18:10.518Z,66.27
2022-10-01T11:20:55.111Z,66.47
2022-10-01T11:23:49.692Z,68.85
2022-10-01T11:26:30.894Z,68.20
2022-10-01T11:29:31.657Z,69.64
2022-10-01T11:32:16.679Z,69.26
2022-10-01T11:35:21.967Z,69.10
2022-10-01T11:38:11.694Z,69.78
2022-10-01T11:40:49.798Z,68.97
2022-10-01T11:43:23.369Z,70.51
2022-10-01T11:45:56.320Z,68.71
2022-10-01T11:48:31.466Z,67.98
2022-10-01T11:51:05.427Z,65.86
2022-10-01T11:53:38.490Z,66.21
2022-10-01T11:56:39.044Z,66.41
2022-10-01T11:59:13.815Z,65.84
2022-10-01T12:01:49.503Z,64.98
2022-10-01T12:04:32.132Z,64.79
2022-10-01T12:07:09.641Z,64.58
2022-10-01T12:09:57.743Z,65.32
2022-10-01T12:12:27.794Z,65.75
2022-10-01T12:15:23.356Z,66.69
2022-10-01T12:18:04.068Z,66.77
2022-10-01T12:20:37.843Z,67.27
2022-10-01T12:23:10.348Z,65.75
2022-10-01T12:25:46.723Z,65.39
2022-10-01T12:28:20.105Z,64.47
2022-10-01T12:31:05.422Z,64.31
2022-10-01T12:34:02.943Z,63.83
2022-10-01T12:36:53.420Z,60.91
2022-10-01T12:39:35.100Z,60.22
2022-10-01T12:42:04.228Z,61.25
2022-10-01T12:44:57.174Z,61.84
2022-10-01T12:47:35.093Z,62.72
2022-10-01T12:50:23.220Z,63.43
2022-10-01T12:53:08.989Z,63.81
2022-10-01T12:55:48.946Z,63.81
2022-10-01T12:58:41.909Z,64.45
2022-10-01T13:01:15.086Z,60.53
2022-10-01T13:03:41.391Z,59.71
2022-10-01T13:06:46.614Z,58.88
2022-10-01T13:09:48.915Z,59.48
2022-10-01T13:12:36.778Z,59.85
2022-10-01T13:15:05.687Z,60.88
2022-10-01T13:17:59.694Z,61.96
2022-10-01T13:20:46.067Z,62.23
2022-10-01T13:23:21.792Z,62.28
2022-10-01T13:26:09.454Z,62.82
2022-10-01T13:28:38.777Z,61.66
2022-10-01T13:31:15.936Z,62.20
2022-10-01T13:33:54.608Z,59.41
2022-10-01T13:36:32.683Z,60.21
2022-10-01T13:38:59.499Z,57.81
2022-10-01T13:41:34.772Z,59.42
2022-10-01T13:44:23.214Z,59.92
2022-10-01T13:46:53.451Z,60.22
2022-10-01T13:49:28.515Z,60.90
2022-10-01T13:51:55.893Z,61.60
2022-10-01T13:54:36.238Z,62.61
2022-10-01T13:57:26.325Z,62.12
2022-10-01T13:59:59.880Z,61.96
2022-10-01T14:02:37.130Z,61.78
2022-10-01T14:05:29.809Z,60.73
2022-10-01T14:08:11.685Z,61.10
2022-10-01T14:11:04.496Z,61.68
2022-10-01T14:13:53.247Z,62.30
2022-10-01T14:16:20.224Z,62.34
2022-10-01T14:18:49.234Z,61.48
2022-10-01T14:21:35.003Z,61.41
2022-10-01T14:24:33.647Z,62.07
2022-10-01T14:27:26.382Z,62.36
2022-10-01T14:30:07.285Z,61.91
2022-10-01T14:33:05.107Z,60.77
2022-10-01T14:35:35.178Z,60.69
2022-10-01T14:38:04.873Z,60.49
2022-10-01T14:40:43.071Z,62.80
2022-10-01T14:43:17.574Z,64.16
2022-10-01T14:45:57.436Z,65.82
2022-10-01T14:48:25.715Z,67.32
2022-10-01T14:50:56.156Z,68.10
2022-10-01T14:53:27.248Z,68.50
2022-10-01T14:55:56.722Z,68.64
2022-10-01T14:58:26.271Z,68.95
2022-10-01T15:00:54.975Z,69.07
2022-10-01T15:03:21.407Z,68.82
2022-10-01T15:05:51.896Z,69.25
2022-10-01T15:08:33.849Z,70.21
2022-10-01T15:11:03.827Z,72.21
2022-10-01T15:13:35.259Z,72.99
2022-10-01T15:16:02.703Z,73.36
2022-10-01T15:18:30.467Z,73.71
2022-10-01T15:21:02.541Z,73.89
2022-10-01T15:23:30.471Z,73.87
2022-10-01T15:26:00.126Z,74.55
2022-10-01T15:28:31.945Z,74.55
2022-10-01T15:31:00.881Z,74.31
2022-10-01T15:33:29.820Z,74.61
2022-10-01T15:35:58.395Z,74.63
2022-10-01T15:38:25.197Z,74.31
2022-10-01T15:41:13.996Z,74.19
2022-10-01T15:43:45.186Z,74.36
2022-10-01T15:46:18.495Z,73.93
2022-10-01T15:48:46.013Z,74.40
2022-10-01T15:51:19.269Z,74.12
2022-10-01T15:53:46.077Z,74.29
2022-10-01T15:56:16.966Z,74.09
2022-10-01T15:58:48.873Z,74.19
2022-10-01T16:01:22.655Z,74.12
2022-10-01T16:03:56.781Z,74.32
2022-10-01T16:06:29.010Z,74.60
2022-10-01T16:09:05.791Z,74.49
2022-10-01T16:11:58.238Z,75.03
2022-10-01T16:14:40.526Z,74.75
2022-10-01T16:17:18.884Z,75.16
2022-10-01T16:20:09.408Z,75.18
2022-10-01T16:22:37.477Z,75.67
2022-10-01T16:25:26.734Z,75.79
2022-10-01T16:28:20.219Z,75.67
2022-10-01T16:30:50.477Z,75.27
2022-10-01T16:33:16.887Z,75.15
2022-10-01T16:35:45.456Z,74.70
2022-10-01T16:38:12.049Z,74.87
2022-10-01T16:40:48.977Z,74.75
2022-10-01T16:43:20.676Z,74.80
2022-10-01T16:45:47.046Z,74.83
2022-10-01T16:48:15.707Z,74.81
2022-10-01T16:50:44.036Z,74.78
2022-10-01T16:53:12.666Z,74.49
2022-10-01T16:55:39.224Z,74.72
2022-10-01T16:58:06.124Z,74.43
2022-10-01T17:00:32.895Z,74.59
2022-10-01T17:02:59.793Z,74.29
2022-10-01T17:05:29.255Z,74.26
2022-10-01T17:08:01.001Z,74.54
2022-10-01T17:10:35.659Z,74.61
2022-10-01T17:13:03.488Z,73.53
2022-10-01T17:15:30.311Z,73.65
2022-10-01T17:17:58.224Z,73.94
2022-10-01T17:20:28.349Z,74.00
2022-10-01T17:22:55.493Z,74.37
2022-10-01T17:25:31.891Z,74.17
2022-10-01T17:27:59.569Z,74.39
2022-10-01T17:30:28.989Z,74.52
2022-10-01T17:32:56.031Z,74.70
2022-10-01T17:35:22.743Z,74.76
2022-10-01T17:37:49.107Z,75.09
2022-10-01T17:40:15.710Z,75.50
2022-10-01T17:42:42.043Z,75.66
2022-10-01T17:45:10.414Z,75.79
2022-10-01T17:47:36.734Z,76.19
2022-10-01T17:50:03.945Z,76.59
2022-10-01T17:52:32.071Z,76.92
2022-10-01T17:54:58.684Z,77.14
2022-10-01T17:57:25.193Z,77.47
2022-10-01T17:59:51.750Z,77.69
2022-10-01T18:02:40.528Z,77.99
2022-10-01T18:05:08.478Z,77.96
2022-10-01T18:07:39.022Z,78.29
2022-10-01T18:10:06.545Z,78.49
2022-10-01T18:12:33.711Z,78.98
2022-10-01T18:15:00.928Z,79.41
2022-10-01T18:17:27.422Z,79.40
2022-10-01T18:19:54.377Z,79.61
2022-10-01T18:22:21.343Z,79.78
2022-10-01T18:24:47.671Z,80.15
2022-10-01T18:27:14.079Z,80.45
2022-10-01T18:29:40.455Z,80.67
2022-10-01T18:32:11.295Z,81.03
2022-10-01T18:34:58.832Z,81.13
2022-10-01T18:37:52.282Z,81.37
2022-10-01T18:40:22.991Z,81.54
2022-10-01T18:43:15.432Z,81.67
2022-10-01T18:46:06.772Z,82.07
2022-10-01T18:48:51.212Z,82.27
2022-10-01T18:51:32.330Z,81.79
2022-10-01T18:54:33.490Z,82.39
2022-10-01T18:57:31.035Z,82.75
2022-10-01T19:00:08.839Z,82.90
2022-10-01T19:03:02.377Z,82.92
2022-10-01T19:05:56.396Z,82.84
2022-10-01T19:08:57.056Z,83.11
2022-10-01T19:12:08.097Z,83.03
2022-10-01T19:14:55.821Z,83.40
2022-10-01T19:17:47.167Z,83.36
2022-10-01T19:20:46.203Z,83.25
2022-10-01T19:23:41.015Z,83.60
2022-10-01T19:26:31.436Z,83.48
2022-10-01T19:29:22.272Z,83.48
2022-10-01T19:32:00.235Z,83.36
2022-10-01T19:34:45.429Z,83.75
2022-10-01T19:37:38.759Z,83.76
2022-10-01T19:40:16.703Z,83.48
2022-10-01T19:42:50.452Z,84.07
2022-10-01T19:45:21.264Z,83.84
2022-10-01T19:48:02.204Z,83.91
2022-10-01T19:50:37.022Z,84.09
2022-10-01T19:53:04.267Z,84.02
2022-10-01T19:55:38.779Z,84.26
2022-10-01T19:58:18.018Z,84.29
2022-10-01T20:00:48.059Z,84.22
2022-10-01T20:03:24.380Z,83.96
2022-10-01T20:05:58.596Z,84.10
2022-10-01T20:08:34.057Z,84.03
2022-10-01T20:11:10.181Z,84.19
2022-10-01T20:13:42.472Z,84.17
2022-10-01T20:16:35.954Z,84.34
2022-10-01T20:19:23.639Z,84.26
2022-10-01T20:22:12.858Z,84.24
2022-10-01T20:25:00.294Z,84.37
2022-10-01T20:27:59.007Z,84.40
2022-10-01T20:30:30.191Z,84.33
2022-10-01T20:33:17.063Z,84.51
2022-10-01T20:35:57.814Z,84.42
2022-10-01T20:38:29.367Z,84.49
2022-10-01T20:40:58.248Z,84.82
2022-10-01T20:43:38.494Z,84.66
2022-10-01T20:46:12.899Z,84.86
2022-10-01T20:48:43.322Z,85.16
2022-10-01T20:51:22.514Z,85.28
2022-10-01T20:53:54.030Z,85.06
2022-10-01T20:56:30.795Z,85.38
2022-10-01T20:59:24.292Z,85.59
2022-10-01T21:02:02.325Z,85.84
2022-10-01T21:04:40.823Z,85.62
2022-10-01T21:07:27.882Z,86.16
2022-10-01T21:10:01.192Z,85.93
2022-10-01T21:12:37.817Z,86.32
2022-10-01T21:15:05.007Z,86.42
2022-10-01T21:17:53.646Z,86.66
2022-10-01T21:20:38.080Z,86.81
2022-10-01T21:23:18.691Z,86.69
2022-10-01T21:26:11.732Z,87.09
2022-10-01T21:29:02.947Z,87.33
2022-10-01T21:31:29.251Z,87.32
2022-10-01T21:34:02.312Z,87.82
2022-10-01T21:36:59.314Z,88.07
2022-10-01T21:39:31.335Z,88.10
2022-10-01T21:42:29.368Z,88.35
2022-10-01T21:45:02.412Z,88.35
2022-10-01T21:47:31.392Z,88.53
2022-10-01T21:50:20.397Z,88.69
2022-10-01T21:53:31.762Z,88.69
2022-10-01T21:56:16.084Z,88.89
2022-10-01T21:58:56.973Z,89.09
2022-10-01T22:01:41.012Z,89.23
2022-10-01T22:04:21.957Z,89.45
2022-10-01T22:06:55.754Z,89.55
2022-10-01T22:09:32.947Z,89.79
2022-10-01T22:12:02.322Z,89.94
2022-10-01T22:14:29.607Z,90.23
2022-10-01T22:17:01.273Z,90.50
2022-10-01T22:19:30.216Z,90.38
2022-10-01T22:22:21.678Z,90.72
2022-10-01T22:24:57.099Z,90.87
2022-10-01T22:27:33.054Z,90.87
2022-10-01T22:30:06.236Z,91.10
2022-10-01T22:33:05.322Z,91.19
2022-10-01T22:35:51.380Z,91.45
2022-10-01T22:38:23.806Z,91.59
2022-10-01T22:41:02.035Z,91.58
2022-10-01T22:43:28.737Z,91.81
2022-10-01T22:45:57.799Z,91.79
2022-10-01T22:48:38.642Z,91.96
2022-10-01T22:51:14.780Z,92.29
2022-10-01T22:54:04.420Z,91.96
2022-10-01T22:56:43.226Z,91.97
2022-10-01T22:59:35.335Z,91.54
2022-10-01T23:02:23.487Z,91.01
2022-10-01T23:04:55.176Z,90.60
2022-10-01T23:07:53.510Z,90.54
2022-10-01T23:10:31.264Z,90.24
2022-10-01T23:13:18.723Z,90.43
2022-10-01T23:16:19.121Z,90.46
2022-10-01T23:19:00.522Z,90.33
2022-10-01T23:22:05.276Z,90.94
2022-10-01T23:25:05.203Z,91.08
2022-10-01T23:28:09.302Z,91.04
2022-10-01T23:31:06.770Z,91.03
2022-10-01T23:33:33.011Z,90.91
2022-10-01T23:36:18.160Z,90.82
2022-10-01T23:39:18.083Z,90.38
2022-10-01T23:41:59.131Z,90.40
2022-10-01T23:44:51.740Z,90.39
2022-10-01T23:47:26.963Z,90.32
2022-10-01T23:49:55.721Z,90.40
2022-10-01T23:52:31.889Z,90.40
2022-10-01T23:55:23.546Z,90.39
2022-10-01T23:57:54.173Z,90.20
